| time (UTC) | temp F | wind direction | speed knots | gust knots | rain 1hr in | rain 24hr in | rain mn in | humidity % | barometer mb |
| 20260504214915 | 75 | 208 | 5.2 | 9.6 | 0.00 | 0.00 | 0.00 | 31 | 1011.8 |
| 20260504214411 | 75 | 245 | 7.8 | 12.2 | 0.00 | 0.00 | 0.00 | 30 | 1011.6 |
| 20260504213908 | 75 | 211 | 4.3 | 7.8 | 0.00 | 0.00 | 0.00 | 30 | 1011.6 |
| 20260504213404 | 75 | 171 | 2.6 | 8.7 | 0.00 | 0.00 | 0.00 | 30 | 1011.5 |
| 20260504212902 | 75 | 244 | 4.3 | 8.7 | 0.00 | 0.00 | 0.00 | 31 | 1011.6 |
| 20260504212357 | 75 | 226 | 4.3 | 8.7 | 0.00 | 0.00 | 0.00 | 30 | 1011.6 |
| 20260504211855 | 75 | 274 | 1.7 | 11.3 | 0.00 | 0.00 | 0.00 | 31 | 1011.5 |
| 20260504211351 | 75 | 271 | 2.6 | 7.0 | 0.00 | 0.00 | 0.00 | 30 | 1011.2 |
| 20260504210849 | 75 | 309 | 2.6 | 7.8 | 0.00 | 0.00 | 0.00 | 29 | 1011.5 |
| 20260504210345 | 75 | 256 | 4.3 | 7.8 | 0.00 | 0.00 | 0.00 | 29 | 1011.6 |
| 20260504205843 | 75 | 203 | 4.3 | 8.7 | 0.00 | 0.00 | 0.00 | 29 | 1011.6 |
| 20260504205341 | 75 | 242 | 3.5 | 9.6 | 0.00 | 0.00 | 0.00 | 30 | 1011.6 |
| 20260504204838 | 75 | 251 | 6.1 | 9.6 | 0.00 | 0.00 | 0.00 | 29 | 1011.7 |
| 20260504204337 | 75 | 253 | 6.1 | 8.7 | 0.00 | 0.00 | 0.00 | 29 | 1011.6 |
| 20260504203836 | 75 | 230 | 5.2 | 7.8 | 0.00 | 0.00 | 0.00 | 30 | 1011.8 |
| 20260504203332 | 75 | 195 | 2.6 | 7.8 | 0.00 | 0.00 | 0.00 | 31 | 1011.5 |
| 20260504202828 | 75 | 268 | 5.2 | 12.2 | 0.00 | 0.00 | 0.00 | 30 | 1011.7 |
| 20260504202325 | 75 | 242 | 4.3 | 6.1 | 0.00 | 0.00 | 0.00 | 30 | 1011.7 |
| 20260504201822 | 75 | 293 | 5.2 | 8.7 | 0.00 | 0.00 | 0.00 | 30 | 1011.8 |
| 20260504201319 | 75 | 266 | 1.7 | 7.8 | 0.00 | 0.00 | 0.00 | 31 | 1011.9 |
| 20260504200817 | 75 | 205 | 3.5 | 8.7 | 0.00 | 0.00 | 0.00 | 31 | 1011.9 |
| 20260504200313 | 75 | 206 | 5.2 | 12.2 | 0.00 | 0.00 | 0.00 | 31 | 1012.0 |
| 20260504195809 | 75 | 243 | 5.2 | 8.7 | 0.00 | 0.00 | 0.00 | 30 | 1011.8 |
| 20260504195305 | 75 | 208 | 2.6 | 8.7 | 0.00 | 0.00 | 0.00 | 30 | 1011.9 |
| 20260504194802 | 74 | 211 | 5.2 | 7.8 | 0.00 | 0.00 | 0.00 | 31 | 1012.1 |
| 20260504194258 | 75 | 227 | 6.1 | 7.0 | 0.00 | 0.00 | 0.00 | 29 | 1012.0 |
| 20260504193754 | 75 | 334 | 0.9 | 7.8 | 0.00 | 0.00 | 0.00 | 32 | 1012.2 |
| 20260504193252 | 75 | 316 | 4.3 | 7.0 | 0.00 | 0.00 | 0.00 | 30 | 1012.4 |
| 20260504192750 | 75 | 233 | 5.2 | 7.8 | 0.00 | 0.00 | 0.00 | 30 | 1012.2 |
| 20260504192248 | 75 | 289 | 3.5 | 6.1 | 0.00 | 0.00 | 0.00 | 30 | 1012.2 |
| 20260504191747 | 75 | 260 | 3.5 | 9.6 | 0.00 | 0.00 | 0.00 | 30 | 1012.3 |
| 20260504191243 | 76 | 241 | 4.3 | 7.0 | 0.00 | 0.00 | 0.00 | 31 | 1012.4 |
| 20260504190739 | 75 | 261 | 1.7 | 6.1 | 0.00 | 0.00 | 0.00 | 31 | 1012.7 |
| 20260504190235 | 74 | 207 | 1.7 | 3.5 | 0.00 | 0.00 | 0.00 | 30 | 1012.5 |
| 20260504185732 | 75 | 240 | 8.7 | 9.6 | 0.00 | 0.00 | 0.00 | 30 | 1012.7 |
| 20260504185229 | 74 | 298 | 5.2 | 7.8 | 0.00 | 0.00 | 0.00 | 30 | 1012.7 |
| 20260504184725 | 74 | 245 | 4.3 | 7.8 | 0.00 | 0.00 | 0.00 | 29 | 1012.6 |
| 20260504184221 | 74 | 323 | 3.5 | 6.1 | 0.00 | 0.00 | 0.00 | 30 | 1012.7 |
| 20260504183717 | 74 | 234 | 3.5 | 3.5 | 0.00 | 0.00 | 0.00 | 31 | 1012.6 |
| 20260504183214 | 74 | 323 | 0.9 | 5.2 | 0.00 | 0.00 | 0.00 | 30 | 1012.8 |
| 20260504182712 | 74 | 322 | 7.8 | 11.3 | 0.00 | 0.00 | 0.00 | 31 | 1012.8 |
| 20260504182209 | 74 | 210 | 1.7 | 7.0 | 0.00 | 0.00 | 0.00 | 31 | 1012.8 |
| 20260504181706 | 74 | 204 | 1.7 | 7.0 | 0.00 | 0.00 | 0.00 | 32 | 1013.0 |
| 20260504181204 | 73 | 260 | 3.5 | 7.0 | 0.00 | 0.00 | 0.00 | 30 | 1013.0 |
| 20260504180703 | 74 | 233 | 3.5 | 8.7 | 0.00 | 0.00 | 0.00 | 30 | 1013.0 |
| 20260504180201 | 74 | 242 | 5.2 | 7.0 | 0.00 | 0.00 | 0.00 | 30 | 1013.0 |
| 20260504175658 | 73 | 188 | 4.3 | 7.8 | 0.00 | 0.00 | 0.00 | 30 | 1013.1 |
| 20260504175154 | 72 | 205 | 0.9 | 8.7 | 0.00 | 0.00 | 0.00 | 30 | 1013.2 |
| 20260504174653 | 74 | 251 | 7.8 | 9.6 | 0.00 | 0.00 | 0.00 | 29 | 1013.1 |
| 20260504174149 | 73 | 242 | 3.5 | 7.0 | 0.00 | 0.00 | 0.00 | 32 | 1013.1 |
| 20260504173646 | 73 | 244 | 7.0 | 8.7 | 0.00 | 0.00 | 0.00 | 30 | 1013.3 |
| 20260504173144 | 73 | 265 | 4.3 | 8.7 | 0.00 | 0.00 | 0.00 | 31 | 1013.4 |
| 20260504172640 | 72 | 252 | 2.6 | 7.0 | 0.00 | 0.00 | 0.00 | 31 | 1013.4 |
| 20260504172137 | 72 | 249 | 1.7 | 7.0 | 0.00 | 0.00 | 0.00 | 33 | 1013.5 |
| 20260504171633 | 72 | 215 | 7.8 | 13.0 | 0.00 | 0.00 | 0.00 | 31 | 1013.8 |
| 20260504171130 | 73 | 238 | 3.5 | 7.0 | 0.00 | 0.00 | 0.00 | 31 | 1013.7 |
| 20260504170626 | 72 | 241 | 6.1 | 13.9 | 0.00 | 0.00 | 0.00 | 30 | 1013.9 |
| 20260504170124 | 72 | 206 | 7.0 | 11.3 | 0.00 | 0.00 | 0.00 | 32 | 1013.8 |
| 20260504151010 | 68 | 239 | 3.5 | 9.6 | 0.00 | 0.00 | 0.00 | 40 | 1014.6 |
| 20260504150507 | 68 | 259 | 4.3 | 9.6 | 0.00 | 0.00 | 0.00 | 43 | 1014.6 |
| 20260504140933 | 64 | 162 | 3.5 | 6.1 | 0.00 | 0.00 | 0.00 | 50 | 1015.1 |
| 20260504140429 | 64 | 239 | 2.6 | 7.0 | 0.00 | 0.00 | 0.00 | 52 | 1015.3 |
| 20260504130354 | 60 | 199 | 3.5 | 9.6 | 0.00 | 0.00 | 0.00 | 60 | 1015.7 |
| 20260504120317 | 55 | 230 | 3.5 | 5.2 | 0.00 | 0.00 | 0.00 | 72 | 1016.3 |
| 20260504110241 | 52 | 219 | 0.9 | 2.6 | 0.00 | 0.00 | 0.00 | 77 | 1016.8 |
| 20260504100205 | 51 | 141 | 0.9 | 1.7 | 0.00 | 0.00 | 0.00 | 76 | 1016.5 |
| 20260504090128 | 51 | 248 | 1.7 | 7.0 | 0.00 | 0.00 | 0.00 | 76 | 1016.8 |
| 20260504081558 | 50 | 193 | 2.6 | 5.2 | 0.00 | 0.00 | 0.00 | 75 | 1016.8 |
| 20260504081054 | 50 | 204 | 1.7 | 2.6 | 0.00 | 0.00 | 0.00 | 75 | 1016.9 |
| 20260504080551 | 50 | 226 | 2.6 | 3.5 | 0.00 | 0.00 | 0.00 | 74 | 1017.0 |
| 20260504050403 | 48 | 190 | 2.6 | 3.5 | 0.00 | 0.00 | 0.00 | 58 | 1016.8 |
| 20260504045900 | 48 | 236 | 2.6 | 3.5 | 0.00 | 0.00 | 0.00 | 58 | 1016.8 |
| 20260504045355 | 48 | 239 | 1.7 | 5.2 | 0.00 | 0.00 | 0.00 | 59 | 1016.7 |
| 20260504044852 | 48 | 281 | 0.9 | 1.7 | 0.00 | 0.00 | 0.00 | 59 | 1016.7 |
| 20260504044350 | 48 | 283 | 0.9 | 3.5 | 0.00 | 0.00 | 0.00 | 59 | 1016.7 |
| 20260504043847 | 47 | 342 | 0.9 | 2.6 | 0.00 | 0.00 | 0.00 | 60 | 1016.8 |
| 20260504043344 | 47 | 249 | 0.9 | 2.6 | 0.00 | 0.00 | 0.00 | 61 | 1016.9 |
| 20260504042841 | 46 | 258 | 0.9 | 0.9 | 0.00 | 0.00 | 0.00 | 62 | 1016.7 |
| 20260504042337 | 46 | 314 | 0.9 | 0.9 | 0.00 | 0.00 | 0.00 | 61 | 1016.7 |
| 20260504041834 | 46 | 317 | 0.9 | 1.7 | 0.00 | 0.00 | 0.00 | 61 | 1016.5 |
| 20260504041330 | 47 | 279 | 0.0 | 0.9 | 0.00 | 0.00 | 0.00 | 60 | 1016.6 |
| 20260504040826 | 47 | 358 | 0.0 | 0.9 | 0.00 | 0.00 | 0.00 | 59 | 1016.3 |
| 20260504040324 | 47 | 354 | 0.0 | 0.0 | 0.00 | 0.00 | 0.00 | 59 | 1016.5 |
| 20260504035820 | 47 | 332 | 0.0 | 1.7 | 0.00 | 0.00 | 0.00 | 59 | 1016.3 |
| 20260504035318 | 48 | 325 | 0.9 | 0.9 | 0.00 | 0.00 | 0.00 | 58 | 1016.3 |
| 20260504034814 | 47 | 304 | 0.9 | 1.7 | 0.00 | 0.00 | 0.00 | 58 | 1016.3 |
| 20260504034312 | 47 | 333 | 0.9 | 1.7 | 0.00 | 0.00 | 0.00 | 58 | 1016.3 |
| 20260504033809 | 47 | 359 | 0.0 | 1.7 | 0.00 | 0.00 | 0.00 | 59 | 1016.2 |
| 20260504033307 | 47 | 337 | 0.0 | 0.9 | 0.00 | 0.00 | 0.00 | 59 | 1016.1 |
| 20260504032803 | 47 | 357 | 0.0 | 1.7 | 0.00 | 0.00 | 0.00 | 59 | 1016.1 |
| 20260504032300 | 47 | 354 | 0.0 | 0.0 | 0.00 | 0.00 | 0.00 | 59 | 1016.2 |
| 20260504031757 | 46 | 272 | 0.9 | 1.7 | 0.00 | 0.00 | 0.00 | 60 | 1016.0 |
| 20260504031254 | 46 | 338 | 0.9 | 0.9 | 0.00 | 0.00 | 0.00 | 61 | 1016.1 |
| 20260504030750 | 46 | 10 | 0.0 | 0.0 | 0.00 | 0.00 | 0.00 | 63 | 1016.0 |
| 20260504030248 | 46 | 18 | 0.0 | 0.0 | 0.00 | 0.00 | 0.00 | 62 | 1016.1 |
| 20260504025744 | 46 | 344 | 0.0 | 0.9 | 0.00 | 0.00 | 0.00 | 62 | 1016.2 |
| 20260504025241 | 46 | 17 | 0.0 | 0.0 | 0.00 | 0.00 | 0.00 | 59 | 1016.2 |
| 20260504024738 | 46 | 0 | 0.0 | 0.0 | 0.00 | 0.00 | 0.00 | 59 | 1016.1 |
| 20260504024234 | 46 | 0 | 0.0 | 0.0 | 0.00 | 0.00 | 0.00 | 61 | 1016.1 |
| 20260504023731 | 45 | 19 | 0.0 | 0.0 | 0.00 | 0.00 | 0.00 | 62 | 1016.0 |
| 20260504023227 | 45 | 7 | 0.0 | 0.0 | 0.00 | 0.00 | 0.00 | 63 | 1016.0 |
| 20260504022723 | 44 | 359 | 0.0 | 0.0 | 0.00 | 0.00 | 0.00 | 64 | 1016.2 |
| 20260504022220 | 45 | 359 | 0.0 | 0.0 | 0.00 | 0.00 | 0.00 | 65 | 1016.3 |
| 20260504021717 | 45 | 359 | 0.0 | 0.0 | 0.00 | 0.00 | 0.00 | 64 | 1016.2 |
| 20260504021214 | 45 | 359 | 0.0 | 0.0 | 0.00 | 0.00 | 0.00 | 63 | 1016.2 |
| 20260504020711 | 46 | 359 | 0.0 | 0.0 | 0.00 | 0.00 | 0.00 | 61 | 1016.2 |
| 20260504020207 | 46 | 359 | 0.0 | 0.0 | 0.00 | 0.00 | 0.00 | 62 | 1016.0 |
| 20260504015704 | 46 | 359 | 0.0 | 0.0 | 0.00 | 0.00 | 0.00 | 61 | 1016.1 |
| 20260504015200 | 46 | 359 | 0.0 | 0.0 | 0.00 | 0.00 | 0.00 | 62 | 1015.7 |
| 20260504014655 | 47 | 359 | 0.0 | 0.0 | 0.00 | 0.00 | 0.00 | 61 | 1015.7 |
| 20260504014153 | 47 | 8 | 0.0 | 0.0 | 0.00 | 0.00 | 0.00 | 57 | 1015.8 |
| 20260504013651 | 47 | 10 | 0.0 | 0.9 | 0.00 | 0.00 | 0.00 | 59 | 1015.9 |
| 20260504013147 | 47 | 259 | 0.0 | 0.0 | 0.00 | 0.00 | 0.00 | 60 | 1015.9 |
| 20260504012644 | 48 | 11 | 0.0 | 0.0 | 0.00 | 0.00 | 0.00 | 59 | 1016.0 |
| 20260504012142 | 47 | 30 | 0.0 | 0.0 | 0.00 | 0.00 | 0.00 | 58 | 1015.8 |
| 20260504011639 | 47 | 31 | 0.0 | 0.0 | 0.00 | 0.00 | 0.00 | 61 | 1015.8 |
| 20260504011136 | 47 | 15 | 0.0 | 0.0 | 0.00 | 0.00 | 0.00 | 60 | 1015.6 |
| 20260504010631 | 47 | 349 | 0.0 | 0.0 | 0.00 | 0.00 | 0.00 | 59 | 1015.6 |
| 20260504010127 | 48 | 17 | 0.0 | 0.0 | 0.00 | 0.00 | 0.00 | 55 | 1015.7 |
| 20260504005625 | 48 | 18 | 0.0 | 0.0 | 0.00 | 0.00 | 0.00 | 54 | 1015.4 |
| 20260504005121 | 48 | 5 | 0.0 | 0.0 | 0.00 | 0.00 | 0.00 | 55 | 1015.6 |
| 20260504004620 | 48 | 27 | 0.0 | 0.0 | 0.00 | 0.00 | 0.00 | 53 | 1015.4 |
| 20260504004116 | 49 | 6 | 0.0 | 0.0 | 0.00 | 0.00 | 0.00 | 54 | 1015.5 |
| 20260504003613 | 49 | 12 | 0.0 | 0.0 | 0.00 | 0.00 | 0.00 | 53 | 1015.5 |
| 20260504003109 | 50 | 346 | 0.0 | 0.9 | 0.00 | 0.00 | 0.00 | 51 | 1015.0 |
| 20260504002606 | 51 | 346 | 0.0 | 0.9 | 0.00 | 0.00 | 0.00 | 50 | 1015.1 |
| 20260504002104 | 51 | 18 | 0.0 | 0.0 | 0.00 | 0.00 | 0.00 | 48 | 1014.9 |
| 20260504001601 | 52 | 16 | 0.0 | 0.0 | 0.00 | 0.00 | 0.00 | 47 | 1014.9 |
| 20260504001057 | 53 | 35 | 0.0 | 0.0 | 0.00 | 0.00 | 0.00 | 44 | 1014.9 |
| 20260504000554 | 54 | 21 | 0.0 | 0.0 | 0.00 | 0.00 | 0.00 | 42 | 1014.9 |
| 20260504000052 | 55 | 351 | 0.0 | 0.9 | 0.00 | 0.00 | 0.00 | 42 | 1014.9 |
| 20260503235550 | 56 | 358 | 0.9 | 0.9 | 0.00 | 0.00 | 0.00 | 39 | 1014.8 |
| 20260503235047 | 56 | 332 | 0.9 | 3.5 | 0.00 | 0.00 | 0.00 | 37 | 1014.7 |
| 20260503234544 | 57 | 221 | 0.9 | 1.7 | 0.00 | 0.00 | 0.00 | 36 | 1014.9 |
| 20260503234043 | 58 | 276 | 1.7 | 3.5 | 0.00 | 0.00 | 0.00 | 35 | 1014.9 |
| 20260503233538 | 58 | 272 | 0.9 | 2.6 | 0.00 | 0.00 | 0.00 | 34 | 1014.7 |
| 20260503233034 | 58 | 238 | 1.7 | 5.2 | 0.00 | 0.00 | 0.00 | 34 | 1014.8 |
| 20260503232532 | 58 | 264 | 2.6 | 8.7 | 0.00 | 0.00 | 0.00 | 34 | 1014.9 |
| 20260503232029 | 59 | 260 | 4.3 | 5.2 | 0.00 | 0.00 | 0.00 | 34 | 1014.8 |
| 20260503231527 | 59 | 271 | 3.5 | 7.0 | 0.00 | 0.00 | 0.00 | 33 | 1014.8 |
| 20260503231023 | 59 | 281 | 2.6 | 3.5 | 0.00 | 0.00 | 0.00 | 33 | 1014.6 |
| 20260503230520 | 60 | 278 | 2.6 | 5.2 | 0.00 | 0.00 | 0.00 | 33 | 1014.7 |
| 20260503230018 | 60 | 334 | 1.7 | 2.6 | 0.00 | 0.00 | 0.00 | 33 | 1014.6 |
| 20260503225514 | 60 | 264 | 2.6 | 7.0 | 0.00 | 0.00 | 0.00 | 32 | 1014.6 |
| 20260503225009 | 60 | 359 | 5.2 | 7.8 | 0.00 | 0.00 | 0.00 | 32 | 1014.6 |
| 20260503224507 | 60 | 291 | 6.1 | 9.6 | 0.00 | 0.00 | 0.00 | 32 | 1014.5 |
| 20260503224005 | 60 | 94 | 3.5 | 7.0 | 0.00 | 0.00 | 0.00 | 32 | 1014.5 |
| 20260503223502 | 60 | 242 | 2.6 | 7.0 | 0.00 | 0.00 | 0.00 | 32 | 1014.7 |
| 20260503222957 | 60 | 218 | 5.2 | 12.2 | 0.00 | 0.00 | 0.00 | 32 | 1014.6 |
| 20260503222456 | 60 | 212 | 6.1 | 9.6 | 0.00 | 0.00 | 0.00 | 31 | 1014.3 |
| 20260503221954 | 60 | 275 | 3.5 | 11.3 | 0.00 | 0.00 | 0.00 | 31 | 1014.4 |
| 20260503221452 | 60 | 258 | 5.2 | 11.3 | 0.00 | 0.00 | 0.00 | 32 | 1014.5 |
| 20260503220949 | 60 | 244 | 7.8 | 13.9 | 0.00 | 0.00 | 0.00 | 32 | 1014.5 |
| 20260503220445 | 60 | 243 | 7.0 | 9.6 | 0.00 | 0.00 | 0.00 | 32 | 1014.5 |
| 20260503215942 | 60 | 331 | 7.0 | 9.6 | 0.00 | 0.00 | 0.00 | 31 | 1014.5 |
| 20260503215439 | 60 | 233 | 7.0 | 11.3 | 0.00 | 0.00 | 0.00 | 31 | 1014.7 |